Chongqing Jiangbei International

Airport
ICAO code: 
ZUCK
IATA Code: 
CKG
Summary
ICAO Region: 
APAC
Territory: 
Location: 
Yubei, Chongqing,
Serving: 
Chongqing
Elevation: 
1365 ft
Coordinates: 
Aerial View: 
29° 43' 9.001" N, 106° 38' 30.001" E
Airport WX: 
Fog
Metar
Observation
ZUCK 021000Z VRB01MPS 6000 NSC 14/06 Q1025 NOSIG
Station
Chongqing
Date/Time
2021-12-02 10:00:00
Lowest cloud amount
nil significant cloud
Temperature
14°C
Dew point
6°C
Humidity
58%
QNH
1025 hPa
Weather condition
n/a

Description

Chongqing Jiangbei International Airport is an airport located in the Yubei District of Chongqing, People's Republic of China. It is located 21 km north of the city-centre of Chongqing and serves as an important aviation hub for south-western China.

Climatology

Within the Köppen Climate Classification System, ((Koppen climate classification Cwa)) this climate type generally has warm and humid summers with mild winters. Its extent is from 30 to 50° of latitude mainly on the eastern and western borders of most continents. During the winter, the main weather feature is the mid-latitude cyclone. Convective thunderstorms provide precipitation in the summer months.

Runways

Designator Length Width Surface Rops
2/20 3200 45 CON Yes/Yes
Airport map: 
Aerial View: 

SKYbrary Partners:

Safety knowledge contributed by: